createdAt,value
2018-03-04T00:00:24.920Z,90586.59
2018-03-04T00:01:14.001Z,90588.74
2018-03-04T00:02:03.042Z,90580.59
2018-03-04T00:02:52.144Z,90584.09
2018-03-04T00:03:41.210Z,90578.44
2018-03-04T00:04:30.367Z,90577.58
2018-03-04T00:05:19.420Z,90574.23
2018-03-04T00:06:08.466Z,90568.92
2018-03-04T00:06:57.536Z,90566.47
2018-03-04T00:07:46.577Z,90560.10
2018-03-04T00:08:35.604Z,90554.05
2018-03-04T00:09:25.013Z,90551.66
2018-03-04T00:10:14.076Z,90548.39
2018-03-04T00:11:03.116Z,90544.91
2018-03-04T00:11:52.150Z,90546.23
2018-03-04T00:12:41.185Z,90551.66
2018-03-04T00:13:30.238Z,90550.54
2018-03-04T00:14:19.267Z,90550.17
2018-03-04T00:15:08.382Z,90548.48
2018-03-04T00:15:57.422Z,90550.30
2018-03-04T00:16:46.490Z,90551.03
2018-03-04T00:17:35.517Z,90550.59
2018-03-04T00:18:24.553Z,90554.16
2018-03-04T00:19:13.595Z,90550.66
2018-03-04T00:20:02.653Z,90552.10
2018-03-04T00:20:51.715Z,90544.78
2018-03-04T00:21:40.758Z,90534.11
2018-03-04T00:22:41.582Z,90523.48
2018-03-04T00:23:30.637Z,90523.95
2018-03-04T00:24:19.687Z,90517.47
2018-03-04T00:25:08.830Z,90519.22
2018-03-04T00:25:57.865Z,90513.29
2018-03-04T00:26:46.907Z,90507.41
2018-03-04T00:27:35.971Z,90504.24
2018-03-04T00:28:25.134Z,90510.95
2018-03-04T00:29:14.171Z,90508.20
2018-03-04T00:30:03.257Z,90519.22
2018-03-04T00:30:52.302Z,90511.14
2018-03-04T00:31:41.376Z,90505.94
2018-03-04T00:32:30.414Z,90493.27
2018-03-04T00:33:19.450Z,90483.39
2018-03-04T00:34:08.539Z,90481.97
2018-03-04T00:34:57.587Z,90479.39
2018-03-04T00:35:46.731Z,90486.38
2018-03-04T00:36:35.860Z,90492.59
2018-03-04T00:37:25.016Z,90502.02
2018-03-04T00:38:14.061Z,90501.98
2018-03-04T00:39:03.241Z,90501.16
2018-03-04T00:39:52.284Z,90486.95
2018-03-04T00:40:41.333Z,90483.15
2018-03-04T00:41:30.393Z,90472.19
2018-03-04T00:42:19.436Z,90454.81
2018-03-04T00:43:08.484Z,90445.98
2018-03-04T00:43:57.542Z,90433.69
2018-03-04T00:44:46.718Z,90447.27
2018-03-04T00:45:35.756Z,90462.44
2018-03-04T00:46:24.791Z,90474.28
2018-03-04T00:47:13.884Z,90477.78
2018-03-04T00:48:02.918Z,90477.59
2018-03-04T00:48:51.954Z,90471.66
2018-03-04T00:49:40.990Z,90470.78
2018-03-04T00:50:30.025Z,90474.56
2018-03-04T00:51:19.264Z,90482.13
2018-03-04T00:52:08.389Z,90487.16
2018-03-04T00:52:57.482Z,90481.82
2018-03-04T00:53:46.531Z,90485.41
2018-03-04T00:54:35.567Z,90475.02
2018-03-04T00:55:24.630Z,90472.01
2018-03-04T00:56:13.677Z,90466.02
2018-03-04T00:57:02.741Z,90462.27
2018-03-04T00:57:51.871Z,90453.02
2018-03-04T00:58:40.908Z,90452.63
2018-03-04T00:59:29.941Z,90446.96
2018-03-04T01:00:18.997Z,90443.63
2018-03-04T01:01:08.084Z,90448.44
2018-03-04T01:01:57.151Z,90444.33
2018-03-04T01:02:46.175Z,90431.86
2018-03-04T01:03:35.238Z,90443.87
2018-03-04T01:04:24.287Z,90431.73
2018-03-04T01:05:13.334Z,90436.86
2018-03-04T01:06:02.366Z,90438.77
2018-03-04T01:06:51.398Z,90436.52
2018-03-04T01:07:40.431Z,90436.44
2018-03-04T01:08:29.471Z,90433.02
2018-03-04T01:09:18.546Z,90429.45
2018-03-04T01:10:07.594Z,90432.11
2018-03-04T01:10:56.633Z,90437.52
2018-03-04T01:11:45.663Z,90428.57
2018-03-04T01:12:34.743Z,90441.15
2018-03-04T01:13:23.793Z,90430.42
2018-03-04T01:14:12.847Z,90434.68
2018-03-04T01:15:01.976Z,90438.20
2018-03-04T01:15:51.026Z,90440.33
2018-03-04T01:16:40.062Z,90440.70
2018-03-04T01:17:29.104Z,90436.28
2018-03-04T01:18:18.135Z,90443.20
2018-03-04T01:19:07.188Z,90441.32
2018-03-04T01:19:56.234Z,90444.11
2018-03-04T01:20:45.308Z,90440.86
2018-03-04T01:21:34.338Z,90439.41
2018-03-04T01:22:23.388Z,90431.33
2018-03-04T01:23:12.435Z,90435.03
2018-03-04T01:24:01.459Z,90433.74
2018-03-04T01:24:50.508Z,90441.01
2018-03-04T01:25:39.544Z,90423.70
2018-03-04T01:26:31.645Z,90419.08
2018-03-04T01:27:20.709Z,90414.02
2018-03-04T01:28:09.760Z,90414.59
2018-03-04T01:28:58.793Z,90422.39
2018-03-04T01:29:47.843Z,90425.90
2018-03-04T01:30:36.876Z,90426.02
2018-03-04T01:31:25.916Z,90428.39
2018-03-04T01:32:15.122Z,90424.11
2018-03-04T01:33:04.179Z,90420.28
2018-03-04T01:33:53.236Z,90407.00
2018-03-04T01:34:42.286Z,90402.05
2018-03-04T01:35:31.336Z,90401.06
2018-03-04T01:36:20.378Z,90403.37
2018-03-04T01:37:09.414Z,90405.53
2018-03-04T01:37:58.498Z,90407.26
2018-03-04T01:38:47.554Z,90403.31
2018-03-04T01:39:36.582Z,90397.35
2018-03-04T01:40:25.621Z,90403.63
2018-03-04T01:41:14.746Z,90410.21
2018-03-04T01:42:03.799Z,90405.20
2018-03-04T01:42:52.867Z,90398.98
2018-03-04T01:43:41.933Z,90399.63
2018-03-04T01:44:30.967Z,90405.52
2018-03-04T01:45:19.995Z,90406.88
2018-03-04T01:46:09.162Z,90414.11
2018-03-04T01:46:58.209Z,90413.33
2018-03-04T01:47:47.246Z,90413.76
2018-03-04T01:48:36.305Z,90413.31
2018-03-04T01:49:25.341Z,90415.48
2018-03-04T01:50:14.385Z,90415.84
2018-03-04T01:51:03.413Z,90416.69
2018-03-04T01:51:52.549Z,90411.36
2018-03-04T01:52:41.598Z,90417.02
2018-03-04T01:53:30.638Z,90416.23
2018-03-04T01:54:19.683Z,90411.08
2018-03-04T01:55:08.718Z,90425.73
2018-03-04T01:55:57.774Z,90424.10
2018-03-04T01:56:46.902Z,90436.77
2018-03-04T01:57:35.955Z,90432.89
2018-03-04T01:58:24.994Z,90434.87
2018-03-04T01:59:14.037Z,90436.09
2018-03-04T02:00:03.099Z,90432.76
2018-03-04T02:00:52.815Z,90428.70
2018-03-04T02:01:42.025Z,90425.03
2018-03-04T02:02:31.227Z,90426.58
2018-03-04T02:03:20.295Z,90428.05
2018-03-04T02:04:09.329Z,90426.98
2018-03-04T02:04:58.377Z,90431.89
2018-03-04T02:05:47.420Z,90436.27
2018-03-04T02:06:36.460Z,90437.44
2018-03-04T02:07:25.526Z,90441.91
2018-03-04T02:08:14.676Z,90438.34
2018-03-04T02:09:03.797Z,90437.54
2018-03-04T02:09:52.837Z,90442.50
2018-03-04T02:10:41.898Z,90438.72
2018-03-04T02:11:30.970Z,90446.83
2018-03-04T02:12:20.073Z,90447.55
2018-03-04T02:13:09.119Z,90445.75
2018-03-04T02:13:58.150Z,90444.56
2018-03-04T02:14:47.189Z,90447.11
2018-03-04T02:15:36.264Z,90444.92
2018-03-04T02:16:25.317Z,90436.20
2018-03-04T02:17:14.443Z,90440.05
2018-03-04T02:18:03.473Z,90444.48
2018-03-04T02:18:52.523Z,90453.53
2018-03-04T02:19:41.561Z,90459.97
2018-03-04T02:20:30.603Z,90457.37
2018-03-04T02:21:19.754Z,90454.34
2018-03-04T02:22:08.836Z,90448.48
2018-03-04T02:22:57.871Z,90449.19
2018-03-04T02:23:46.901Z,90452.20
2018-03-04T02:24:35.938Z,90457.08
2018-03-04T02:25:25.003Z,90457.27
2018-03-04T02:26:14.048Z,90459.78
2018-03-04T02:27:03.184Z,90461.11
2018-03-04T02:27:52.228Z,90467.03
2018-03-04T02:28:41.301Z,90469.16
2018-03-04T02:29:30.422Z,90469.93
2018-03-04T02:30:19.462Z,90473.29
2018-03-04T02:31:08.515Z,90472.94
2018-03-04T02:31:57.572Z,90473.56
2018-03-04T02:32:46.608Z,90472.52
2018-03-04T02:33:35.680Z,90473.56
2018-03-04T02:34:24.733Z,90473.71
2018-03-04T02:35:13.881Z,90463.09
2018-03-04T02:36:02.939Z,90465.59
2018-03-04T02:36:51.982Z,90467.82
2018-03-04T02:37:41.033Z,90468.72
2018-03-04T02:38:30.088Z,90471.59
2018-03-04T02:39:19.152Z,90481.22
2018-03-04T02:40:08.214Z,90474.66
2018-03-04T02:40:57.318Z,90473.37
2018-03-04T02:41:46.363Z,90465.53
2018-03-04T02:42:35.418Z,90463.25
2018-03-04T02:43:24.455Z,90467.02
2018-03-04T02:44:13.508Z,90463.66
2018-03-04T02:45:02.549Z,90464.30
2018-03-04T02:45:51.764Z,90466.59
2018-03-04T02:46:40.826Z,90464.16
2018-03-04T02:47:29.874Z,90465.91
2018-03-04T02:48:19.017Z,90464.43
2018-03-04T02:49:08.054Z,90463.66
2018-03-04T02:49:57.096Z,90461.98
2018-03-04T02:50:46.156Z,90464.83
2018-03-04T02:51:35.194Z,90462.69
2018-03-04T02:52:25.940Z,90472.38
2018-03-04T02:53:15.014Z,90468.05
2018-03-04T02:54:04.099Z,90470.58
2018-03-04T02:54:53.141Z,90469.95
2018-03-04T02:55:42.179Z,90461.86
2018-03-04T02:56:31.217Z,90460.23
2018-03-04T02:57:20.254Z,90461.75
2018-03-04T02:58:09.303Z,90456.83
2018-03-04T02:58:58.341Z,90457.75
2018-03-04T02:59:47.423Z,90453.16
2018-03-04T03:00:36.470Z,90456.24
2018-03-04T03:01:25.530Z,90458.05
2018-03-04T03:02:14.573Z,90457.47
2018-03-04T03:03:03.617Z,90457.13
2018-03-04T03:03:52.674Z,90457.33
2018-03-04T03:04:41.715Z,90451.89
2018-03-04T03:05:30.849Z,90449.08
2018-03-04T03:06:19.896Z,90454.24
2018-03-04T03:07:08.931Z,90452.99
2018-03-04T03:07:57.968Z,90454.88
2018-03-04T03:08:47.019Z,90448.05
2018-03-04T03:09:36.062Z,90443.92
2018-03-04T03:10:25.111Z,90443.33
2018-03-04T03:11:14.283Z,90439.44
2018-03-04T03:12:03.319Z,90448.66
2018-03-04T03:12:52.367Z,90448.66
2018-03-04T03:13:41.484Z,90448.78
2018-03-04T03:14:30.525Z,90451.44
2018-03-04T03:15:19.570Z,90453.69
2018-03-04T03:16:08.621Z,90448.18
2018-03-04T03:16:57.693Z,90447.33
2018-03-04T03:17:46.785Z,90441.09
2018-03-04T03:18:35.827Z,90445.70
2018-03-04T03:19:24.885Z,90444.66
2018-03-04T03:20:13.918Z,90445.28
2018-03-04T03:21:02.960Z,90451.17
2018-03-04T03:21:52.033Z,90449.80
2018-03-04T03:22:41.148Z,90456.08
2018-03-04T03:23:30.197Z,90456.63
2018-03-04T03:24:19.246Z,90447.16
2018-03-04T03:25:08.288Z,90442.83
2018-03-04T03:25:57.315Z,90442.09
2018-03-04T03:26:46.339Z,90448.18
2018-03-04T03:27:35.384Z,90452.19
2018-03-04T03:28:24.577Z,90458.42
2018-03-04T03:29:13.616Z,90456.55
2018-03-04T03:30:02.715Z,90460.54
2018-03-04T03:30:51.779Z,90461.80
2018-03-04T03:31:40.839Z,90462.21
2018-03-04T03:32:29.887Z,90462.56
2018-03-04T03:33:19.041Z,90467.59
2018-03-04T03:34:08.154Z,90466.12
2018-03-04T03:34:57.196Z,90471.55
2018-03-04T03:35:46.250Z,90468.97
2018-03-04T03:36:35.291Z,90473.83
2018-03-04T03:37:24.320Z,90472.63
2018-03-04T03:38:13.357Z,90474.70
2018-03-04T03:39:02.453Z,90473.92
2018-03-04T03:39:51.522Z,90470.84
2018-03-04T03:40:40.569Z,90475.48
2018-03-04T03:41:29.626Z,90471.63
2018-03-04T03:42:18.777Z,90474.98
2018-03-04T03:43:07.822Z,90475.45
2018-03-04T03:43:56.867Z,90472.75
2018-03-04T03:44:45.915Z,90462.09
2018-03-04T03:45:34.961Z,90459.36
2018-03-04T03:46:24.009Z,90458.86
2018-03-04T03:47:13.059Z,90458.73
2018-03-04T03:48:02.158Z,90461.03
2018-03-04T03:48:51.205Z,90463.66
2018-03-04T03:49:40.249Z,90465.19
2018-03-04T03:50:29.316Z,90469.57
2018-03-04T03:51:18.362Z,90463.64
2018-03-04T03:52:07.725Z,90466.27
2018-03-04T03:52:56.761Z,90469.40
2018-03-04T03:53:45.841Z,90463.54
2018-03-04T03:54:34.882Z,90468.39
2018-03-04T03:55:23.917Z,90468.70
2018-03-04T03:56:13.482Z,90463.84
2018-03-04T03:57:02.537Z,90463.84
2018-03-04T03:57:51.577Z,90460.30
2018-03-04T03:58:40.618Z,90462.86
2018-03-04T03:59:29.780Z,90458.30
2018-03-04T04:00:18.822Z,90463.06
2018-03-04T04:01:07.856Z,90463.64
2018-03-04T04:01:56.886Z,90462.99
2018-03-04T04:02:45.926Z,90460.19
2018-03-04T04:03:34.974Z,90459.98
2018-03-04T04:04:24.017Z,90464.30
2018-03-04T04:05:13.178Z,90466.05
2018-03-04T04:06:02.218Z,90470.95
2018-03-04T04:06:51.259Z,90472.41
2018-03-04T04:07:40.293Z,90471.93
2018-03-04T04:08:29.332Z,90472.81
2018-03-04T04:09:18.413Z,90462.99
2018-03-04T04:10:07.450Z,90462.03
2018-03-04T04:10:56.491Z,90458.53
2018-03-04T04:11:45.535Z,90458.45
2018-03-04T04:12:34.574Z,90456.08
2018-03-04T04:13:23.615Z,90453.92
2018-03-04T04:14:12.666Z,90454.09
2018-03-04T04:15:01.832Z,90453.72
2018-03-04T04:15:50.900Z,90454.62
2018-03-04T04:16:39.959Z,90456.38
2018-03-04T04:17:28.997Z,90461.86
2018-03-04T04:18:18.702Z,90458.66
2018-03-04T04:19:07.762Z,90457.58
2018-03-04T04:19:56.805Z,90461.16
2018-03-04T04:20:45.900Z,90459.84
2018-03-04T04:21:34.959Z,90461.16
2018-03-04T04:22:24.016Z,90464.99
2018-03-04T04:23:13.063Z,90468.50
2018-03-04T04:24:02.108Z,90465.69
2018-03-04T04:24:51.151Z,90466.70
2018-03-04T04:25:40.195Z,90471.86
2018-03-04T04:26:29.403Z,90473.01
2018-03-04T04:27:18.442Z,90471.27
2018-03-04T04:28:07.503Z,90474.78
2018-03-04T04:28:56.541Z,90477.08
2018-03-04T04:29:45.578Z,90476.30
2018-03-04T04:30:34.757Z,90474.58
2018-03-04T04:31:23.789Z,90469.97
2018-03-04T04:32:12.824Z,90475.20
2018-03-04T04:33:01.874Z,90474.13
2018-03-04T04:33:50.933Z,90477.84
2018-03-04T04:34:39.976Z,90471.43
2018-03-04T04:35:29.022Z,90473.70
2018-03-04T04:36:18.121Z,90474.66
2018-03-04T04:37:07.155Z,90474.36
2018-03-04T04:37:56.216Z,90471.95
2018-03-04T04:38:45.249Z,90473.86
2018-03-04T04:39:34.298Z,90471.63
2018-03-04T04:40:23.335Z,90476.34
2018-03-04T04:41:12.375Z,90471.95
2018-03-04T04:42:01.542Z,90465.97
2018-03-04T04:42:50.587Z,90466.07
2018-03-04T04:43:39.624Z,90469.66
2018-03-04T04:44:30.272Z,90474.64
2018-03-04T04:45:19.310Z,90470.60
2018-03-04T04:46:08.359Z,90469.33
2018-03-04T04:46:57.499Z,90466.90
2018-03-04T04:47:46.561Z,90467.59
2018-03-04T04:48:35.607Z,90473.01
2018-03-04T04:49:24.653Z,90471.98
2018-03-04T04:50:13.745Z,90472.98
2018-03-04T04:51:02.818Z,90474.61
2018-03-04T04:51:51.878Z,90467.83
2018-03-04T04:52:40.942Z,90469.30
2018-03-04T04:53:30.004Z,90463.22
2018-03-04T04:54:19.035Z,90467.15
2018-03-04T04:55:08.141Z,90469.92
2018-03-04T04:55:57.200Z,90465.30
2018-03-04T04:56:46.249Z,90468.13
2018-03-04T04:57:35.294Z,90473.45
2018-03-04T04:58:24.338Z,90470.53
2018-03-04T04:59:13.374Z,90471.45
2018-03-04T05:00:02.530Z,90468.50
2018-03-04T05:00:51.582Z,90468.83
2018-03-04T05:01:40.979Z,90468.09
2018-03-04T05:02:30.018Z,90471.13
2018-03-04T05:03:19.063Z,90466.39
2018-03-04T05:04:08.098Z,90475.21
2018-03-04T05:04:57.148Z,90471.55
2018-03-04T05:05:46.221Z,90481.63
2018-03-04T05:06:35.248Z,90474.53
2018-03-04T05:07:24.287Z,90480.95
2018-03-04T05:08:13.332Z,90481.42
2018-03-04T05:09:02.370Z,90478.24
2018-03-04T05:09:51.417Z,90474.27
2018-03-04T05:10:40.461Z,90480.34
2018-03-04T05:11:29.626Z,90479.02
2018-03-04T05:12:18.670Z,90484.25
2018-03-04T05:13:07.715Z,90480.20
2018-03-04T05:13:56.766Z,90483.40
2018-03-04T05:14:45.808Z,90480.95
2018-03-04T05:15:34.849Z,90485.66
2018-03-04T05:16:23.880Z,90486.20
2018-03-04T05:17:12.965Z,90475.86
2018-03-04T05:18:01.995Z,90478.30
2018-03-04T05:18:51.027Z,90480.90
2018-03-04T05:19:40.052Z,90481.45
2018-03-04T05:20:29.093Z,90480.05
2018-03-04T05:21:18.174Z,90484.25
2018-03-04T05:22:07.360Z,90485.98
2018-03-04T05:22:56.394Z,90480.05
2018-03-04T05:23:45.441Z,90486.56
2018-03-04T05:24:34.498Z,90489.64
2018-03-04T05:25:23.521Z,90490.69
2018-03-04T05:26:12.554Z,90486.23
2018-03-04T05:27:01.590Z,90481.14
2018-03-04T05:27:50.672Z,90482.84
2018-03-04T05:28:39.717Z,90483.06
2018-03-04T05:29:28.760Z,90484.04
2018-03-04T05:30:17.798Z,90492.78
2018-03-04T05:31:06.886Z,90493.13
2018-03-04T05:31:55.930Z,90496.48
2018-03-04T05:32:44.994Z,90504.31
2018-03-04T05:33:34.095Z,90500.18
2018-03-04T05:34:23.159Z,90495.59
2018-03-04T05:35:12.209Z,90491.88
2018-03-04T05:36:01.251Z,90493.13
2018-03-04T05:36:50.277Z,90495.59
2018-03-04T05:37:39.332Z,90498.97
2018-03-04T05:38:28.402Z,90497.67
2018-03-04T05:39:17.624Z,90504.59
2018-03-04T05:40:06.679Z,90505.80
2018-03-04T05:40:55.721Z,90503.41
2018-03-04T05:41:44.756Z,90510.95
2018-03-04T05:42:33.809Z,90506.42
2018-03-04T05:43:22.934Z,90507.81
2018-03-04T05:44:11.981Z,90500.33
2018-03-04T05:45:01.013Z,90497.45
2018-03-04T05:45:50.114Z,90502.14
2018-03-04T05:46:39.147Z,90505.88
2018-03-04T05:47:28.190Z,90518.09
2018-03-04T05:48:17.228Z,90513.09
2018-03-04T05:49:06.301Z,90518.93
2018-03-04T05:49:55.360Z,90524.74
2018-03-04T05:50:44.406Z,90530.41
2018-03-04T05:51:33.456Z,90534.59
2018-03-04T05:52:22.522Z,90533.17
2018-03-04T05:53:11.611Z,90531.52
2018-03-04T05:54:00.657Z,90530.07
2018-03-04T05:54:49.754Z,90531.80
2018-03-04T05:55:38.823Z,90531.33
2018-03-04T05:56:27.898Z,90532.52
2018-03-04T05:57:16.964Z,90535.45
2018-03-04T05:58:06.022Z,90550.91
2018-03-04T05:58:55.076Z,90556.67
2018-03-04T05:59:44.172Z,90559.55
2018-03-04T06:00:33.385Z,90560.73
2018-03-04T06:01:22.481Z,90562.77
2018-03-04T06:02:11.527Z,90564.41
2018-03-04T06:03:00.588Z,90565.73
2018-03-04T06:03:49.636Z,90568.27
2018-03-04T06:04:38.690Z,90564.94
2018-03-04T06:05:27.818Z,90572.20
2018-03-04T06:06:17.086Z,90568.59
2018-03-04T06:07:06.130Z,90565.53
2018-03-04T06:07:55.280Z,90563.73
2018-03-04T06:08:44.373Z,90564.63
2018-03-04T06:09:33.416Z,90561.67
2018-03-04T06:10:22.462Z,90559.31
2018-03-04T06:11:11.519Z,90555.27
2018-03-04T06:12:00.631Z,90553.09
2018-03-04T06:12:49.680Z,90553.22
2018-03-04T06:13:38.727Z,90554.14
2018-03-04T06:14:27.911Z,90555.18
2018-03-04T06:15:16.997Z,90562.61
2018-03-04T06:16:06.054Z,90565.03
2018-03-04T06:16:55.125Z,90564.45
2018-03-04T06:17:44.220Z,90560.64
2018-03-04T06:18:33.303Z,90555.00
2018-03-04T06:19:22.382Z,90548.80
2018-03-04T06:20:11.436Z,90544.13
2018-03-04T06:21:00.517Z,90551.67
2018-03-04T06:21:49.564Z,90546.51
2018-03-04T06:22:38.624Z,90544.14
2018-03-04T06:23:27.798Z,90536.59
2018-03-04T06:24:16.853Z,90534.58
2018-03-04T06:25:05.915Z,90536.11
2018-03-04T06:25:55.113Z,90539.09
2018-03-04T06:26:44.155Z,90540.23
2018-03-04T06:27:33.218Z,90537.38
2018-03-04T06:28:22.260Z,90542.02
2018-03-04T06:29:11.324Z,90552.60
2018-03-04T06:30:00.383Z,90559.88
2018-03-04T06:30:49.432Z,90559.81
2018-03-04T06:31:38.546Z,90558.55
2018-03-04T06:32:27.626Z,90559.88
2018-03-04T06:33:16.676Z,90557.50
2018-03-04T06:34:05.737Z,90558.13
2018-03-04T06:34:54.801Z,90553.22
2018-03-04T06:35:43.865Z,90546.09
2018-03-04T06:36:32.925Z,90542.84
2018-03-04T06:37:22.013Z,90553.22
2018-03-04T06:38:11.122Z,90560.58
2018-03-04T06:39:00.157Z,90571.12
2018-03-04T06:39:49.203Z,90571.32
2018-03-04T06:40:38.245Z,90566.21
2018-03-04T06:41:27.312Z,90559.91
2018-03-04T06:42:16.431Z,90558.93
2018-03-04T06:43:05.622Z,90554.62
2018-03-04T06:43:54.660Z,90553.72
2018-03-04T06:44:43.718Z,90557.77
2018-03-04T06:45:32.774Z,90556.55
2018-03-04T06:46:21.833Z,90556.39
2018-03-04T06:47:10.878Z,90564.32
2018-03-04T06:47:59.943Z,90567.94
2018-03-04T06:48:49.046Z,90572.22
2018-03-04T06:49:38.109Z,90577.38
2018-03-04T06:50:27.207Z,90567.72
2018-03-04T06:51:16.350Z,90567.67
2018-03-04T06:52:05.452Z,90562.95
2018-03-04T06:52:54.533Z,90560.95
2018-03-04T06:53:43.603Z,90556.14
2018-03-04T06:54:32.804Z,90553.58
2018-03-04T06:55:21.926Z,90556.81
2018-03-04T06:56:10.986Z,90571.03
2018-03-04T06:57:00.021Z,90576.42
2018-03-04T06:57:49.221Z,90571.23
2018-03-04T06:58:38.263Z,90576.34
2018-03-04T06:59:27.341Z,90579.54
2018-03-04T07:00:17.330Z,90570.89
2018-03-04T07:01:06.383Z,90576.83
2018-03-04T07:01:55.429Z,90581.29
2018-03-04T07:02:44.469Z,90586.59
2018-03-04T07:03:33.550Z,90585.54
2018-03-04T07:04:22.622Z,90586.28
2018-03-04T07:05:11.956Z,90590.44
2018-03-04T07:06:01.102Z,90589.05
2018-03-04T07:06:50.196Z,90595.28
2018-03-04T07:07:39.236Z,90588.36
2018-03-04T07:08:28.287Z,90587.67
2018-03-04T07:09:17.331Z,90589.92
2018-03-04T07:10:06.380Z,90595.27
2018-03-04T07:10:55.415Z,90590.72
2018-03-04T07:11:44.523Z,90590.91
2018-03-04T07:12:34.077Z,90588.87
2018-03-04T07:13:23.193Z,90586.83
2018-03-04T07:14:12.588Z,90583.08
2018-03-04T07:15:01.649Z,90578.00
2018-03-04T07:15:50.702Z,90582.20
2018-03-04T07:16:39.977Z,90590.61
2018-03-04T07:17:29.168Z,90598.95
2018-03-04T07:18:18.235Z,90594.81
2018-03-04T07:19:07.303Z,90587.45
2018-03-04T07:19:56.359Z,90584.66
2018-03-04T07:20:45.411Z,90579.18
2018-03-04T07:21:34.470Z,90583.19
2018-03-04T07:22:23.504Z,90586.52
2018-03-04T07:23:12.597Z,90593.33
2018-03-04T07:24:01.697Z,90598.95
2018-03-04T07:24:50.769Z,90588.01
2018-03-04T07:25:39.794Z,90589.62
2018-03-04T07:26:28.859Z,90591.45
2018-03-04T07:27:18.015Z,90590.77
2018-03-04T07:28:07.054Z,90602.48
2018-03-04T07:28:56.146Z,90604.13
2018-03-04T07:29:45.224Z,90603.77
2018-03-04T07:30:34.264Z,90602.23
2018-03-04T07:31:23.305Z,90595.50
2018-03-04T07:32:12.365Z,90600.84
2018-03-04T07:33:01.723Z,90592.30
2018-03-04T07:33:50.771Z,90588.98
2018-03-04T07:34:39.906Z,90599.89
2018-03-04T07:35:28.950Z,90605.28
2018-03-04T07:36:17.978Z,90602.28
2018-03-04T07:37:07.018Z,90600.14
2018-03-04T07:37:56.066Z,90613.20
2018-03-04T07:38:45.091Z,90618.26
2018-03-04T07:39:34.194Z,90611.43
2018-03-04T07:40:23.306Z,90616.77
2018-03-04T07:41:12.460Z,90626.74
2018-03-04T07:42:01.507Z,90624.01
2018-03-04T07:42:50.560Z,90616.08
2018-03-04T07:43:39.607Z,90620.41
2018-03-04T07:44:28.779Z,90621.01
2018-03-04T07:45:17.890Z,90622.06
2018-03-04T07:46:06.952Z,90628.00
2018-03-04T07:46:55.991Z,90625.77
2018-03-04T07:47:45.040Z,90630.54
2018-03-04T07:48:34.106Z,90623.78
2018-03-04T07:49:23.144Z,90627.86
2018-03-04T07:50:12.185Z,90638.23
2018-03-04T07:51:01.388Z,90642.42
2018-03-04T07:51:50.439Z,90641.39
2018-03-04T07:52:39.513Z,90647.80
2018-03-04T07:53:29.295Z,90641.50
2018-03-04T07:54:18.354Z,90647.80
2018-03-04T07:55:07.376Z,90649.44
2018-03-04T07:55:56.454Z,90652.92
2018-03-04T07:56:45.562Z,90648.45
2018-03-04T07:57:34.609Z,90647.52
2018-03-04T07:58:23.670Z,90649.80
2018-03-04T07:59:12.709Z,90643.77
2018-03-04T08:00:05.133Z,90643.83
2018-03-04T08:00:54.171Z,90644.03
2018-03-04T08:01:43.359Z,90649.63
2018-03-04T08:02:32.401Z,90641.37
2018-03-04T08:03:21.447Z,90639.14
2018-03-04T08:04:10.483Z,90641.17
2018-03-04T08:04:59.533Z,90644.86
2018-03-04T08:05:48.576Z,90649.05
2018-03-04T08:06:37.617Z,90654.38
2018-03-04T08:07:26.697Z,90663.10
2018-03-04T08:08:15.733Z,90661.42
2018-03-04T08:09:04.823Z,90665.52
2018-03-04T08:09:53.866Z,90666.38
2018-03-04T08:10:42.919Z,90675.62
2018-03-04T08:11:31.982Z,90671.91
2018-03-04T08:12:21.027Z,90679.21
2018-03-04T08:13:10.211Z,90685.02
2018-03-04T08:13:59.252Z,90694.30
2018-03-04T08:14:48.318Z,90689.87
2018-03-04T08:15:37.363Z,90692.42
2018-03-04T08:16:26.432Z,90688.51
2018-03-04T08:17:15.463Z,90688.95
2018-03-04T08:18:04.497Z,90688.51
2018-03-04T08:18:54.513Z,90692.55
2018-03-04T08:19:43.579Z,90685.33
2018-03-04T08:20:32.618Z,90687.51
2018-03-04T08:21:21.682Z,90690.28
2018-03-04T08:22:10.711Z,90686.02
2018-03-04T08:22:59.764Z,90692.00
2018-03-04T08:23:48.822Z,90691.40
2018-03-04T08:24:38.000Z,90694.13
2018-03-04T08:25:36.224Z,90699.16
2018-03-04T08:26:37.023Z,90700.69
2018-03-04T08:27:37.630Z,90701.80
2018-03-04T08:28:33.547Z,90705.44
2018-03-04T08:29:22.585Z,90711.95
2018-03-04T08:30:11.628Z,90714.52
2018-03-04T08:31:01.896Z,90714.14
2018-03-04T08:31:50.995Z,90712.42
2018-03-04T08:32:40.031Z,90714.20
2018-03-04T08:33:29.083Z,90706.86
2018-03-04T08:34:18.226Z,90711.35
2018-03-04T08:35:07.298Z,90703.87
2018-03-04T08:35:56.343Z,90708.67
2018-03-04T08:36:45.388Z,90709.63
2018-03-04T08:37:34.473Z,90713.64
2018-03-04T08:38:23.528Z,90711.92
2018-03-04T08:39:12.674Z,90719.56
2018-03-04T08:40:01.702Z,90717.33
2018-03-04T08:40:50.760Z,90720.00
2018-03-04T08:41:39.787Z,90725.70
2018-03-04T08:42:28.819Z,90724.33
2018-03-04T08:43:17.875Z,90724.86
2018-03-04T08:44:06.973Z,90722.05
2018-03-04T08:44:56.060Z,90724.31
2018-03-04T08:45:45.107Z,90730.36
2018-03-04T08:46:34.147Z,90728.22
2018-03-04T08:47:23.184Z,90727.66
2018-03-04T08:48:12.265Z,90735.11
2018-03-04T08:49:01.387Z,90735.75
2018-03-04T08:49:50.448Z,90733.52
2018-03-04T08:50:39.528Z,90739.98
2018-03-04T08:51:28.709Z,90742.22
2018-03-04T08:52:17.752Z,90740.47
2018-03-04T08:53:06.794Z,90743.42
2018-03-04T08:53:55.855Z,90745.78
2018-03-04T08:54:45.018Z,90756.22
2018-03-04T08:55:34.176Z,90749.20
2018-03-04T08:56:23.384Z,90756.13
2018-03-04T08:57:12.569Z,90751.49
2018-03-04T08:58:01.671Z,90749.03
2018-03-04T08:58:50.841Z,90746.16
2018-03-04T08:59:39.881Z,90750.17
2018-03-04T09:00:28.954Z,90749.45
2018-03-04T09:01:18.023Z,90753.59
2018-03-04T09:02:07.670Z,90758.42
2018-03-04T09:02:56.847Z,90761.15
2018-03-04T09:03:45.925Z,90760.15
2018-03-04T09:04:34.982Z,90758.14
2018-03-04T09:05:24.086Z,90764.26
2018-03-04T09:06:13.160Z,90770.25
2018-03-04T09:07:02.209Z,90768.78
2018-03-04T09:07:51.300Z,90776.08
2018-03-04T09:08:40.389Z,90776.17
2018-03-04T09:09:29.450Z,90773.34
2018-03-04T09:10:18.523Z,90773.53
2018-03-04T09:11:07.646Z,90776.78
2018-03-04T09:11:56.692Z,90777.06
2018-03-04T09:12:45.754Z,90778.02
2018-03-04T09:13:34.807Z,90781.46
2018-03-04T09:14:23.894Z,90779.39
2018-03-04T09:15:12.945Z,90784.83
2018-03-04T09:16:02.046Z,90783.84
2018-03-04T09:16:51.247Z,90782.62
2018-03-04T09:17:40.346Z,90788.96
2018-03-04T09:18:29.401Z,90787.12
2018-03-04T09:19:18.460Z,90787.28
2018-03-04T09:20:07.522Z,90794.03
2018-03-04T09:20:56.746Z,90788.53
2018-03-04T09:21:45.845Z,90789.78
2018-03-04T09:22:34.899Z,90790.84
2018-03-04T09:23:23.968Z,90796.78
2018-03-04T09:24:13.019Z,90797.64
2018-03-04T09:25:02.087Z,90793.20
2018-03-04T09:25:51.191Z,90799.27
2018-03-04T09:26:40.396Z,90799.22
2018-03-04T09:27:29.430Z,90799.83
2018-03-04T09:28:18.461Z,90801.58
2018-03-04T09:29:07.499Z,90810.72
2018-03-04T09:29:56.538Z,90809.77
2018-03-04T09:30:45.597Z,90808.02
2018-03-04T09:31:34.630Z,90807.92
2018-03-04T09:32:23.778Z,90810.64
2018-03-04T09:33:12.901Z,90810.33
2018-03-04T09:34:01.950Z,90810.72
2018-03-04T09:34:51.156Z,90820.09
2018-03-04T09:35:40.191Z,90816.55
2018-03-04T09:36:29.242Z,90815.17
2018-03-04T09:37:18.278Z,90819.61